Time;durP1;ratioP1;P1;durP2;ratioP2;P2;SDS_P1;SDS_P2;PMS_P1;PMS_P2;Temp;Humidity;BMP_temperature;BMP_pressure;BME280_temperature;BME280_humidity;BME280_pressure;Samples;Min_cycle;Max_cycle;Signal;HPM_P1;HPM_P2
2022/08/20 00:00:25;;;;;;;;;;;;;;;21.84;58.62;99664.91;1082961;54;20038;-75
2022/08/20 00:01:26;;;;;;;;;;;;;;;21.80;58.88;99656.38;1082792;54;19947;-75
2022/08/20 00:02:30;;;;;;;;;;;;;;;21.85;58.12;99661.94;1082518;54;19947;-75
2022/08/20 00:03:32;;;;;;;;;;;;;;;21.64;57.82;99661.34;1082340;54;20033;-75
2022/08/20 00:04:35;;;;;;;;;;;;;;;21.72;58.26;99656.69;1082270;54;19950;-75
2022/08/20 00:05:38;;;;;;;;;;;;;;;21.74;58.16;99654.56;1082225;54;19950;-75
2022/08/20 00:06:44;;;;;;;;;;;;;;;21.62;57.42;99657.22;1082694;39;20433;-76
2022/08/20 00:07:45;;;;;;;;;;;;;;;21.62;57.71;99666.22;1082274;54;19946;-75
2022/08/20 00:08:49;;;;;;;;;;;;;;;21.68;57.28;99669.88;1082059;54;20061;-76
2022/08/20 00:09:50;;;;;;;;;;;;;;;21.70;57.71;99661.53;1082234;54;19950;-76
2022/08/20 00:10:54;;;;;;;;;;;;;;;21.76;57.71;99668.75;1081861;54;19950;-75
2022/08/20 00:11:55;;;;;;;;;;;;;;;21.66;57.31;99669.31;1082445;54;19951;-75
2022/08/20 00:12:59;;;;;;;;;;;;;;;21.65;57.58;99664.94;1082275;54;19989;-75
2022/08/20 00:14:01;;;;;;;;;;;;;;;21.73;57.36;99672.78;1081991;54;19950;-75
2022/08/20 00:15:06;;;;;;;;;;;;;;;21.74;57.33;99670.88;1082327;54;19947;-75
2022/08/20 00:16:08;;;;;;;;;;;;;;;21.62;57.14;99668.94;1082501;54;20430;-76
2022/08/20 00:17:12;;;;;;;;;;;;;;;21.63;57.68;99670.56;1082427;54;19962;-74
2022/08/20 00:18:14;;;;;;;;;;;;;;;21.63;57.59;99662.41;1081943;54;19947;-75
2022/08/20 00:19:17;;;;;;;;;;;;;;;21.61;57.22;99667.28;1082262;54;20677;-75
2022/08/20 00:20:20;;;;;;;;;;;;;;;21.61;57.81;99667.28;1082280;54;19959;-75
2022/08/20 00:21:24;;;;;;;;;;;;;;;21.68;57.64;99660.91;1082113;54;19974;-75
2022/08/20 00:22:28;;;;;;;;;;;;;;;21.72;57.32;99662.13;1082219;54;19981;-75
2022/08/20 00:23:32;;;;;;;;;;;;;;;21.68;57.61;99658.19;1081969;54;20786;-75
2022/08/20 00:24:33;;;;;;;;;;;;;;;21.66;57.68;99663.88;1082169;54;19947;-75
2022/08/20 00:25:37;;;;;;;;;;;;;;;21.64;57.61;99661.34;1082247;54;19947;-75
2022/08/20 00:26:38;;;;;;;;;;;;;;;21.59;57.49;99666.66;1082379;54;19950;-75
2022/08/20 00:27:42;;;;;;;;;;;;;;;21.57;57.96;99671.47;1081970;54;19947;-75
2022/08/20 00:28:43;;;;;;;;;;;;;;;21.64;57.88;99665.97;1082147;54;19946;-77
2022/08/20 00:29:47;;;;;;;;;;;;;;;21.46;57.91;99666.75;1082119;54;19957;-76
2022/08/20 00:30:48;;;;;;;;;;;;;;;21.36;58.28;99659.16;1082239;54;20769;-75
2022/08/20 00:31:52;;;;;;;;;;;;;;;21.41;58.35;99662.00;1081936;54;20043;-75
2022/08/20 00:32:54;;;;;;;;;;;;;;;21.42;58.10;99662.84;1082813;39;20306;-75
2022/08/20 00:33:58;;;;;;;;;;;;;;;21.49;58.08;99667.13;1082202;54;19946;-75
2022/08/20 00:34:59;;;;;;;;;;;;;;;21.48;58.18;99670.09;1082359;54;20054;-75
2022/08/20 00:36:05;;;;;;;;;;;;;;;21.41;58.50;99677.50;1082596;39;20387;-75
2022/08/20 00:37:07;;;;;;;;;;;;;;;21.38;58.37;99672.50;1082406;54;19957;-75
2022/08/20 00:38:13;;;;;;;;;;;;;;;21.35;58.52;99674.59;1082752;54;19950;-75
2022/08/20 00:39:14;;;;;;;;;;;;;;;21.36;58.42;99672.75;1082511;54;19946;-76
2022/08/20 00:40:19;;;;;;;;;;;;;;;21.47;58.51;99676.59;1082306;39;20346;-76
2022/08/20 00:41:23;;;;;;;;;;;;;;;21.51;58.27;99675.91;1082522;54;19985;-77
2022/08/20 00:42:26;;;;;;;;;;;;;;;21.40;58.58;99668.50;1082525;54;19951;-77
2022/08/20 00:43:37;;;;;;;;;;;;;;;21.34;58.51;99670.25;1082834;39;20666;-75
2022/08/20 00:44:43;;;;;;;;;;;;;;;21.45;58.71;99667.81;1082216;54;20034;-75
2022/08/20 00:45:47;;;;;;;;;;;;;;;21.50;58.21;99666.09;1082654;39;20378;-76
2022/08/20 00:46:51;;;;;;;;;;;;;;;21.50;58.20;99668.81;1083963;54;19950;-75
2022/08/20 00:47:54;;;;;;;;;;;;;;;21.53;58.02;99664.81;1084169;54;19957;-75
2022/08/20 00:48:58;;;;;;;;;;;;;;;21.47;58.34;99669.28;1083771;54;19955;-76
2022/08/20 00:49:59;;;;;;;;;;;;;;;21.47;58.41;99665.72;1084028;54;19957;-75
2022/08/20 00:51:05;;;;;;;;;;;;;;;21.50;58.74;99670.72;1083996;54;20069;-75
2022/08/20 00:52:11;;;;;;;;;;;;;;;21.53;58.61;99669.41;1084368;54;19946;-76
2022/08/20 00:53:19;;;;;;;;;;;;;;;21.52;58.45;99668.59;1084293;54;19947;-75
2022/08/20 00:54:22;;;;;;;;;;;;;;;21.50;58.61;99676.16;1084204;39;20421;-75
2022/08/20 00:55:27;;;;;;;;;;;;;;;21.50;58.68;99676.97;1085229;39;20368;-76
2022/08/20 00:56:29;;;;;;;;;;;;;;;21.56;58.28;99679.84;1083629;54;19947;-75
2022/08/20 00:57:36;;;;;;;;;;;;;;;21.56;58.54;99686.09;1083455;54;19970;-76
2022/08/20 00:58:38;;;;;;;;;;;;;;;21.56;58.70;99685.28;1083033;54;19946;-75
2022/08/20 00:59:43;;;;;;;;;;;;;;;21.56;58.57;99686.09;1083200;54;19957;-75
2022/08/20 01:00:46;;;;;;;;;;;;;;;21.53;58.89;99693.88;1082955;54;19978;-75
2022/08/20 01:01:50;;;;;;;;;;;;;;;21.48;58.67;99694.56;1082942;54;20454;-75
2022/08/20 01:02:51;;;;;;;;;;;;;;;21.47;59.13;99695.63;1082607;54;19971;-75
2022/08/20 01:03:57;;;;;;;;;;;;;;;21.47;59.12;99693.75;1082907;54;19946;-76
2022/08/20 01:04:58;;;;;;;;;;;;;;;21.45;58.86;99695.84;1082512;54;19988;-75
2022/08/20 01:06:01;;;;;;;;;;;;;;;21.47;58.92;99693.75;1082594;54;19950;-75
2022/08/20 01:07:04;;;;;;;;;;;;;;;21.46;58.97;99696.66;1082698;39;20369;-75
2022/08/20 01:08:08;;;;;;;;;;;;;;;21.45;59.19;99695.84;1083257;54;19968;-76
2022/08/20 01:09:12;;;;;;;;;;;;;;;21.46;58.90;99710.28;1083897;39;20589;-75
2022/08/20 01:10:18;;;;;;;;;;;;;;;21.42;59.29;99700.91;1087208;31;20552;-75
2022/08/20 01:11:21;;;;;;;;;;;;;;;21.19;59.98;99705.94;1086506;39;20681;-76
2022/08/20 01:12:25;;;;;;;;;;;;;;;21.07;60.49;99709.59;1084207;54;19950;-75
2022/08/20 01:13:26;;;;;;;;;;;;;;;21.06;60.44;99710.66;1085770;31;20547;-75
2022/08/20 01:14:36;;;;;;;;;;;;;;;21.04;60.61;99717.16;1084822;39;20353;-76
2022/08/20 01:15:39;;;;;;;;;;;;;;;20.99;60.61;99714.25;1084294;47;20520;-75
2022/08/20 01:16:45;;;;;;;;;;;;;;;20.95;60.92;99714.91;1084213;54;19946;-76
2022/08/20 01:17:48;;;;;;;;;;;;;;;20.92;61.24;99712.66;1084100;54;19947;-75
2022/08/20 01:18:53;;;;;;;;;;;;;;;20.98;61.10;99714.47;1084185;54;19947;-75
2022/08/20 01:19:56;;;;;;;;;;;;;;;21.03;60.63;99717.34;1083982;54;19950;-75
2022/08/20 01:21:01;;;;;;;;;;;;;;;21.05;60.87;99717.97;1084172;54;19958;-75
2022/08/20 01:23:25;;;;;;;;;;;;;;;21.04;60.75;99717.16;1083901;54;20539;-75
2022/08/20 01:23:33;;;;;;;;;;;;;;;21.13;60.54;99716.88;1083974;54;19954;-76
2022/08/20 01:24:43;;;;;;;;;;;;;;;21.13;60.85;99725.84;1084371;39;20427;-75
2022/08/20 01:25:48;;;;;;;;;;;;;;;21.15;60.57;99717.47;1084149;54;19977;-75
2022/08/20 01:26:53;;;;;;;;;;;;;;;21.12;60.47;99715.19;1083584;47;19947;-75
2022/08/20 01:27:54;;;;;;;;;;;;;;;21.14;60.74;99716.63;1082422;54;19953;-75
2022/08/20 01:29:00;;;;;;;;;;;;;;;21.06;60.98;99716.91;1082282;54;19946;-75
2022/08/20 01:30:03;;;;;;;;;;;;;;;21.03;60.95;99710.06;1082691;54;19950;-76
2022/08/20 01:31:08;;;;;;;;;;;;;;;20.99;61.39;99713.44;1082268;54;20034;-75
2022/08/20 01:32:09;;;;;;;;;;;;;;;20.95;61.72;99707.59;1082653;54;19946;-75
2022/08/20 01:33:13;;;;;;;;;;;;;;;20.94;61.58;99711.38;1082433;54;19946;-75
2022/08/20 01:34:15;;;;;;;;;;;;;;;20.96;61.47;99712.00;1082412;54;19958;-75
2022/08/20 01:35:21;;;;;;;;;;;;;;;20.97;61.46;99713.63;1082681;54;20016;-75
2022/08/20 01:36:29;;;;;;;;;;;;;;;21.01;61.52;99712.16;1082483;54;19970;-75
2022/08/20 01:37:30;;;;;;;;;;;;;;;21.06;61.33;99713.38;1082413;54;20469;-76
2022/08/20 01:38:34;;;;;;;;;;;;;;;21.08;61.25;99713.97;1082848;54;19954;-75
2022/08/20 01:39:35;;;;;;;;;;;;;;;21.04;61.76;99717.16;1082051;54;19946;-75
2022/08/20 01:40:51;;;;;;;;;;;;;;;21.04;61.33;99721.72;1082134;54;19946;-75
2022/08/20 01:42:02;;;;;;;;;;;;;;;21.00;61.60;99731.41;1082584;54;19950;-75
2022/08/20 01:43:08;;;;;;;;;;;;;;;20.99;61.93;99718.88;1082526;54;19957;-75
2022/08/20 01:44:12;;;;;;;;;;;;;;;20.98;62.07;99717.19;1082875;39;20576;-75
2022/08/20 01:45:13;;;;;;;;;;;;;;;20.96;61.99;99719.28;1082513;54;19947;-75
2022/08/20 01:46:17;;;;;;;;;;;;;;;20.92;62.04;99731.69;1082508;54;19946;-76
2022/08/20 01:47:19;;;;;;;;;;;;;;;20.92;62.11;99724.34;1083015;54;19947;-75
2022/08/20 01:48:24;;;;;;;;;;;;;;;20.92;62.10;99721.63;1082338;54;19970;-76
2022/08/20 01:49:27;;;;;;;;;;;;;;;20.94;62.24;99724.97;1082387;54;19973;-76
2022/08/20 01:50:32;;;;;;;;;;;;;;;20.96;61.92;99724.72;1082905;54;20786;-75
2022/08/20 01:51:33;;;;;;;;;;;;;;;20.97;62.20;99727.22;1082959;54;19957;-76
2022/08/20 01:52:41;;;;;;;;;;;;;;;20.95;62.12;99723.91;1083055;54;19954;-75
2022/08/20 01:53:44;;;;;;;;;;;;;;;20.96;62.35;99727.44;1082774;54;19951;-75
2022/08/20 01:54:48;;;;;;;;;;;;;;;20.91;62.35;99733.53;1082754;54;19946;-76
2022/08/20 01:55:49;;;;;;;;;;;;;;;20.92;62.10;99737.94;1083013;54;19971;-75
2022/08/20 01:56:55;;;;;;;;;;;;;;;20.91;62.28;99736.25;1082823;54;19958;-75
2022/08/20 01:57:59;;;;;;;;;;;;;;;20.90;62.55;99745.47;1083435;39;20406;-75
2022/08/20 01:59:05;;;;;;;;;;;;;;;20.86;62.41;99741.53;1082746;54;20470;-75
2022/08/20 02:00:07;;;;;;;;;;;;;;;20.87;62.69;99738.59;1082645;54;19977;-75
2022/08/20 02:01:20;;;;;;;;;;;;;;;20.93;62.58;99742.31;1082768;54;19947;-75
2022/08/20 02:02:21;;;;;;;;;;;;;;;20.92;62.57;99740.66;1083537;54;19946;-75
2022/08/20 02:03:25;;;;;;;;;;;;;;;20.94;62.48;99749.41;1083137;54;19950;-76
2022/08/20 02:04:26;;;;;;;;;;;;;;;20.96;62.12;99741.03;1083592;54;19981;-77
2022/08/20 02:05:31;;;;;;;;;;;;;;;20.95;62.25;99739.38;1083740;54;19974;-75
2022/08/20 02:06:34;;;;;;;;;;;;;;;20.92;62.56;99742.53;1083559;54;20066;-76
2022/08/20 02:07:38;;;;;;;;;;;;;;;20.93;62.36;99728.72;1083552;54;19946;-76
2022/08/20 02:08:39;;;;;;;;;;;;;;;20.91;62.61;99738.97;1084100;39;20447;-75
2022/08/20 02:09:44;;;;;;;;;;;;;;;20.94;62.72;99743.97;1083280;54;19946;-75
2022/08/20 02:10:45;;;;;;;;;;;;;;;20.93;62.70;99745.03;1083262;54;19946;-75
2022/08/20 02:11:52;;;;;;;;;;;;;;;20.95;62.57;99750.22;1083499;54;19946;-75
2022/08/20 02:12:53;;;;;;;;;;;;;;;20.96;62.54;99744.59;1083748;54;20833;-75
2022/08/20 02:13:59;;;;;;;;;;;;;;;20.92;62.84;99745.25;1083477;54;19947;-75
2022/08/20 02:15:00;;;;;;;;;;;;;;;20.75;63.51;99750.38;1083801;54;19950;-75
2022/08/20 02:16:04;;;;;;;;;;;;;;;20.82;63.60;99745.72;1083565;39;20368;-75
2022/08/20 02:17:06;;;;;;;;;;;;;;;20.72;63.67;99746.19;1082367;54;20034;-76
2022/08/20 02:18:11;;;;;;;;;;;;;;;20.71;63.73;99750.78;1082618;54;19970;-75
2022/08/20 02:19:14;;;;;;;;;;;;;;;20.66;63.91;99745.19;1082449;54;19950;-76
2022/08/20 02:20:19;;;;;;;;;;;;;;;20.60;64.20;99750.66;1082271;54;19953;-75
2022/08/20 02:21:21;;;;;;;;;;;;;;;20.57;64.72;99743.78;1082436;54;19996;-75
2022/08/20 02:22:28;;;;;;;;;;;;;;;20.54;64.51;99744.22;1082170;54;19946;-76
2022/08/20 02:23:29;;;;;;;;;;;;;;;20.63;64.34;99748.31;1082250;54;20738;-75
2022/08/20 02:24:33;;;;;;;;;;;;;;;20.50;65.02;99743.00;1082462;54;19946;-76
2022/08/20 02:25:36;;;;;;;;;;;;;;;20.58;64.62;99740.84;1082406;54;19950;-75
2022/08/20 02:26:40;;;;;;;;;;;;;;;20.60;64.59;99747.94;1082553;54;19971;-75
2022/08/20 02:27:42;;;;;;;;;;;;;;;20.43;65.31;99745.75;1082014;54;19959;-75
2022/08/20 02:28:48;;;;;;;;;;;;;;;20.41;65.29;99751.38;1082294;54;19951;-75
2022/08/20 02:29:52;;;;;;;;;;;;;;;20.39;65.44;99750.78;1082183;54;19962;-75
2022/08/20 02:30:57;;;;;;;;;;;;;;;20.44;65.49;99743.84;1082165;54;19951;-75
2022/08/20 02:31:58;;;;;;;;;;;;;;;20.43;65.23;99753.88;1082280;54;20054;-75
2022/08/20 02:33:02;;;;;;;;;;;;;;;20.45;65.50;99748.22;1082445;54;19970;-75
2022/08/20 02:34:04;;;;;;;;;;;;;;;20.42;65.49;99753.03;1082292;54;19977;-75
2022/08/20 02:35:11;;;;;;;;;;;;;;;20.38;65.62;99746.38;1082205;54;19973;-75
2022/08/20 02:36:13;;;;;;;;;;;;;;;20.42;65.78;99753.03;1082836;39;20401;-75
2022/08/20 02:37:18;;;;;;;;;;;;;;;20.38;65.93;99757.25;1082453;54;20441;-75
2022/08/20 02:38:19;;;;;;;;;;;;;;;20.35;65.75;99751.41;1082150;54;19957;-75
2022/08/20 02:39:22;;;;;;;;;;;;;;;20.33;66.25;99748.09;1082205;54;19951;-75
2022/08/20 02:40:25;;;;;;;;;;;;;;;20.33;66.30;99762.47;1082067;54;19977;-75
2022/08/20 02:41:29;;;;;;;;;;;;;;;20.32;66.25;99758.09;1082750;39;20333;-75
2022/08/20 02:42:30;;;;;;;;;;;;;;;20.33;66.11;99754.34;1082275;54;20524;-76
2022/08/20 02:43:34;;;;;;;;;;;;;;;20.33;66.09;99758.94;1082336;54;19945;-75
2022/08/20 02:44:35;;;;;;;;;;;;;;;20.26;66.50;99764.38;1082406;54;19950;-75
2022/08/20 02:45:42;;;;;;;;;;;;;;;20.25;66.86;99751.88;1082452;54;19962;-75
2022/08/20 02:46:43;;;;;;;;;;;;;;;20.21;66.91;99753.38;1082323;54;19951;-75
2022/08/20 02:47:47;;;;;;;;;;;;;;;20.31;66.72;99751.00;1082186;54;19952;-75
2022/08/20 02:48:49;;;;;;;;;;;;;;;20.35;66.35;99754.13;1082046;54;19990;-76
2022/08/20 02:49:53;;;;;;;;;;;;;;;20.38;66.38;99746.38;1082351;54;19973;-75
2022/08/20 02:50:55;;;;;;;;;;;;;;;20.29;66.67;99747.69;1082313;54;19970;-75
2022/08/20 02:51:59;;;;;;;;;;;;;;;20.33;66.45;99739.94;1082415;54;19947;-75
2022/08/20 02:53:00;;;;;;;;;;;;;;;20.41;66.40;99740.50;1082302;54;19946;-75
2022/08/20 02:54:04;;;;;;;;;;;;;;;20.45;65.96;99745.50;1082285;54;19946;-75
2022/08/20 02:55:05;;;;;;;;;;;;;;;20.30;66.57;99738.50;1082274;54;19947;-77
2022/08/20 02:56:09;;;;;;;;;;;;;;;20.34;66.44;99737.00;1082374;54;19954;-76
2022/08/20 02:57:12;;;;;;;;;;;;;;;20.25;67.27;99738.31;1082124;54;19958;-75
2022/08/20 02:58:16;;;;;;;;;;;;;;;20.22;67.22;99736.84;1082407;54;19974;-75
2022/08/20 02:59:17;;;;;;;;;;;;;;;20.19;67.56;99739.19;1082241;54;20440;-75
2022/08/20 03:00:22;;;;;;;;;;;;;;;20.21;67.35;99737.09;1082791;31;20457;-75
2022/08/20 03:01:26;;;;;;;;;;;;;;;20.24;67.03;99740.19;1082082;54;19947;-75
2022/08/20 03:02:30;;;;;;;;;;;;;;;20.24;67.14;99739.34;1082160;54;19970;-75
2022/08/20 03:03:34;;;;;;;;;;;;;;;20.30;67.01;99732.22;1082382;54;20429;-75
2022/08/20 03:04:35;;;;;;;;;;;;;;;20.23;67.46;99732.25;1082410;54;20517;-75
2022/08/20 03:05:40;;;;;;;;;;;;;;;20.37;66.79;99736.56;1082146;54;20680;-75
2022/08/20 03:06:41;;;;;;;;;;;;;;;20.26;67.16;99737.25;1082499;54;19958;-75
2022/08/20 03:07:45;;;;;;;;;;;;;;;20.33;67.08;99738.03;1082260;54;19990;-75
2022/08/20 03:08:47;;;;;;;;;;;;;;;20.45;66.58;99732.75;1082049;54;20737;-76
2022/08/20 03:09:50;;;;;;;;;;;;;;;20.47;66.44;99732.56;1082282;54;20784;-75
2022/08/20 03:10:51;;;;;;;;;;;;;;;20.45;66.78;99740.09;1081859;54;19950;-76
2022/08/20 03:11:55;;;;;;;;;;;;;;;20.49;66.61;99742.16;1082462;39;20647;-75
2022/08/20 03:12:58;;;;;;;;;;;;;;;20.54;66.26;99730.63;1082285;54;20572;-75
2022/08/20 03:14:02;;;;;;;;;;;;;;;20.57;66.34;99733.75;1082345;54;19946;-75
2022/08/20 03:15:04;;;;;;;;;;;;;;;20.65;65.91;99732.66;1082451;54;19958;-76
2022/08/20 03:16:09;;;;;;;;;;;;;;;20.70;65.46;99735.53;1082406;54;20426;-75
2022/08/20 03:17:12;;;;;;;;;;;;;;;20.73;65.62;99742.44;1082194;54;20032;-75
2022/08/20 03:18:16;;;;;;;;;;;;;;;20.77;65.55;99737.44;1082402;54;19947;-75
2022/08/20 03:19:17;;;;;;;;;;;;;;;20.81;65.42;99738.63;1082030;54;19970;-75
2022/08/20 03:20:21;;;;;;;;;;;;;;;20.80;65.11;99732.38;1081971;39;20349;-75
2022/08/20 03:21:25;;;;;;;;;;;;;;;20.84;65.06;99738.19;1082168;54;19947;-75
2022/08/20 03:22:26;;;;;;;;;;;;;;;20.84;65.29;99738.19;1081825;54;19947;-75
2022/08/20 03:23:30;;;;;;;;;;;;;;;20.86;64.98;99734.19;1081910;54;19950;-75
2022/08/20 03:24:32;;;;;;;;;;;;;;;20.83;65.07;99731.09;1081994;54;19978;-75
2022/08/20 03:25:35;;;;;;;;;;;;;;;20.86;65.13;99731.50;1081697;54;19994;-75
2022/08/20 03:26:36;;;;;;;;;;;;;;;20.89;65.10;99732.94;1081593;54;19946;-76
2022/08/20 03:27:40;;;;;;;;;;;;;;;20.84;64.97;99733.59;1082017;54;19951;-76
2022/08/20 03:28:42;;;;;;;;;;;;;;;20.86;65.19;99736.09;1082109;54;19950;-75
2022/08/20 03:29:46;;;;;;;;;;;;;;;20.92;65.01;99735.22;1082954;39;20343;-75
2022/08/20 03:30:49;;;;;;;;;;;;;;;20.77;65.31;99734.72;1082288;54;19950;-75
2022/08/20 03:31:53;;;;;;;;;;;;;;;20.69;65.90;99733.88;1082335;46;19985;-75
2022/08/20 03:32:58;;;;;;;;;;;;;;;20.63;66.38;99737.47;1082133;54;19977;-75
2022/08/20 03:34:02;;;;;;;;;;;;;;;20.67;66.09;99732.44;1082103;54;19962;-75
2022/08/20 03:35:03;;;;;;;;;;;;;;;20.71;65.97;99739.91;1082402;54;19950;-74
2022/08/20 03:36:07;;;;;;;;;;;;;;;20.67;66.08;99736.00;1082486;54;19974;-75
2022/08/20 03:37:11;;;;;;;;;;;;;;;20.65;66.14;99734.53;1082170;54;20045;-77
2022/08/20 03:38:13;;;;;;;;;;;;;;;20.56;66.70;99733.97;1081961;54;19957;-77
2022/08/20 03:39:17;;;;;;;;;;;;;;;20.56;67.03;99742.13;1082918;31;20521;-75
2022/08/20 03:40:21;;;;;;;;;;;;;;;20.57;66.97;99732.91;1082038;54;19958;-75
2022/08/20 03:41:25;;;;;;;;;;;;;;;20.63;66.58;99737.47;1082005;54;19951;-75
2022/08/20 03:42:26;;;;;;;;;;;;;;;20.61;66.54;99725.97;1082186;54;19953;-75
2022/08/20 03:43:30;;;;;;;;;;;;;;;20.61;66.63;99731.41;1082404;39;20345;-75
2022/08/20 03:44:31;;;;;;;;;;;;;;;20.67;66.41;99741.41;1082147;54;20203;-75
2022/08/20 03:45:35;;;;;;;;;;;;;;;20.60;66.94;99737.88;1082132;54;20038;-75
2022/08/20 03:46:37;;;;;;;;;;;;;;;20.63;66.51;99731.22;1082246;54;19950;-77
2022/08/20 03:47:41;;;;;;;;;;;;;;;20.63;66.54;99736.66;1082462;54;19967;-75
2022/08/20 03:48:47;;;;;;;;;;;;;;;20.60;66.79;99739.78;1082155;54;19974;-75
2022/08/20 03:49:48;;;;;;;;;;;;;;;20.66;66.82;99736.19;1082081;54;20548;-75
2022/08/20 03:50:52;;;;;;;;;;;;;;;20.70;66.54;99743.69;1082418;54;20529;-75
2022/08/20 03:51:53;;;;;;;;;;;;;;;20.67;66.70;99744.13;1082362;54;19947;-75
2022/08/20 03:52:58;;;;;;;;;;;;;;;20.70;66.45;99740.97;1082310;54;19946;-77
2022/08/20 03:53:59;;;;;;;;;;;;;;;20.81;65.99;99744.06;1082025;54;19950;-77
2022/08/20 03:55:03;;;;;;;;;;;;;;;20.86;66.00;99742.34;1082107;54;20476;-77
2022/08/20 03:56:04;;;;;;;;;;;;;;;20.91;65.73;99744.41;1082295;54;19962;-74
2022/08/20 03:57:13;;;;;;;;;;;;;;;20.94;65.47;99741.25;1081807;54;19958;-75
2022/08/20 03:58:16;;;;;;;;;;;;;;;20.97;65.65;99740.81;1082925;39;20342;-75
2022/08/20 03:59:19;;;;;;;;;;;;;;;21.01;65.41;99739.31;1082013;54;19970;-75
2022/08/20 04:00:23;;;;;;;;;;;;;;;20.95;65.86;99751.06;1082519;39;20368;-75
2022/08/20 04:01:27;;;;;;;;;;;;;;;21.00;65.55;99744.97;1081714;54;19973;-75
2022/08/20 04:02:28;;;;;;;;;;;;;;;20.96;65.43;99746.47;1082196;54;19946;-75
2022/08/20 04:03:31;;;;;;;;;;;;;;;20.82;66.14;99743.88;1082126;54;19954;-75
2022/08/20 04:04:35;;;;;;;;;;;;;;;20.79;66.32;99743.44;1082179;54;19950;-75
2022/08/20 04:05:40;;;;;;;;;;;;;;;20.72;66.69;99747.00;1082181;54;19947;-77
2022/08/20 04:06:42;;;;;;;;;;;;;;;20.73;66.49;99746.00;1082272;54;20057;-75
2022/08/20 04:07:46;;;;;;;;;;;;;;;20.71;66.50;99745.34;1082243;54;19969;-74
2022/08/20 04:08:47;;;;;;;;;;;;;;;20.75;66.84;99744.94;1081975;54;19974;-75
2022/08/20 04:09:50;;;;;;;;;;;;;;;20.72;66.84;99755.16;1082125;54;19957;-75
2022/08/20 04:10:53;;;;;;;;;;;;;;;20.72;66.46;99744.28;1081819;54;19951;-75
2022/08/20 04:11:57;;;;;;;;;;;;;;;20.72;66.46;99744.28;1082136;54;19951;-75
2022/08/20 04:12:58;;;;;;;;;;;;;;;20.74;66.58;99754.97;1082167;54;19951;-75
2022/08/20 04:14:02;;;;;;;;;;;;;;;20.81;66.17;99744.91;1082218;54;19947;-75
2022/08/20 04:15:04;;;;;;;;;;;;;;;20.87;66.23;99738.59;1082004;54;19950;-75
2022/08/20 04:16:08;;;;;;;;;;;;;;;20.94;65.70;99748.56;1082245;54;19969;-75
2022/08/20 04:17:11;;;;;;;;;;;;;;;20.96;65.87;99741.88;1082021;54;20037;-77
2022/08/20 04:18:19;;;;;;;;;;;;;;;21.02;65.54;99746.41;1082113;54;19951;-77
2022/08/20 04:19:20;;;;;;;;;;;;;;;21.03;65.47;99749.97;1081698;54;19950;-75
2022/08/20 04:20:27;;;;;;;;;;;;;;;21.02;65.73;99738.28;1081927;54;20046;-75
2022/08/20 04:21:28;;;;;;;;;;;;;;;21.06;65.57;99740.56;1082572;54;19958;-75
2022/08/20 04:22:31;;;;;;;;;;;;;;;21.05;65.45;99739.72;1082566;54;19946;-76
2022/08/20 04:23:34;;;;;;;;;;;;;;;21.00;65.91;99740.38;1082599;54;20104;-75
2022/08/20 04:24:37;;;;;;;;;;;;;;;20.96;66.10;99747.31;1083540;39;20381;-75
2022/08/20 04:25:39;;;;;;;;;;;;;;;20.98;66.14;99749.81;1083169;54;19953;-75
2022/08/20 04:26:43;;;;;;;;;;;;;;;21.06;65.50;99740.56;1083389;54;19966;-75
2022/08/20 04:27:45;;;;;;;;;;;;;;;21.07;65.44;99750.34;1083230;54;19984;-76
2022/08/20 04:28:48;;;;;;;;;;;;;;;21.11;65.29;99749.69;1082440;54;20034;-75
2022/08/20 04:29:49;;;;;;;;;;;;;;;21.14;65.27;99749.25;1082684;54;19969;-75
2022/08/20 04:30:54;;;;;;;;;;;;;;;21.14;65.41;99749.25;1082712;54;19946;-75
2022/08/20 04:31:55;;;;;;;;;;;;;;;21.13;65.18;99752.19;1082250;54;19951;-74
2022/08/20 04:32:59;;;;;;;;;;;;;;;21.10;65.32;99748.03;1082896;54;20042;-75
2022/08/20 04:34:01;;;;;;;;;;;;;;;21.12;65.26;99750.53;1082715;54;19953;-75
2022/08/20 04:35:06;;;;;;;;;;;;;;;21.09;65.70;99751.81;1082454;54;19947;-75
2022/08/20 04:36:09;;;;;;;;;;;;;;;21.08;65.73;99752.00;1082925;39;20476;-75
2022/08/20 04:37:13;;;;;;;;;;;;;;;21.06;65.71;99756.84;1085141;31;20418;-75
2022/08/20 04:38:19;;;;;;;;;;;;;;;21.08;65.64;99760.16;1083273;39;20456;-75
2022/08/20 04:39:22;;;;;;;;;;;;;;;21.08;65.55;99761.00;1082254;54;19969;-75
2022/08/20 04:41:40;;;;;;;;;;;;;;;21.04;65.66;99757.91;1082540;54;19946;-75
2022/08/20 04:42:44;;;;;;;;;;;;;;;21.02;65.94;99765.44;1082426;54;20026;-75
2022/08/20 04:43:45;;;;;;;;;;;;;;;20.98;65.80;99761.47;1082522;46;19990;-75
2022/08/20 04:44:49;;;;;;;;;;;;;;;20.98;66.11;99756.06;1082743;54;19958;-75
2022/08/20 04:45:50;;;;;;;;;;;;;;;21.03;65.88;99758.09;1082527;54;19947;-75
2022/08/20 04:46:54;;;;;;;;;;;;;;;21.10;65.86;99755.34;1082211;54;19950;-74
2022/08/20 04:47:55;;;;;;;;;;;;;;;21.13;65.65;99757.63;1082410;54;19969;-75
2022/08/20 04:48:59;;;;;;;;;;;;;;;21.05;66.15;99761.44;1082540;54;19957;-75
2022/08/20 04:50:00;;;;;;;;;;;;;;;20.98;66.34;99764.19;1082400;54;19950;-75
2022/08/20 04:51:04;;;;;;;;;;;;;;;21.06;65.79;99760.38;1082295;54;19946;-74
2022/08/20 04:52:10;;;;;;;;;;;;;;;21.04;65.96;99766.06;1082567;46;19947;-75
2022/08/20 04:53:15;;;;;;;;;;;;;;;20.87;66.57;99767.66;1082719;54;19951;-75
2022/08/20 04:54:17;;;;;;;;;;;;;;;20.84;66.73;99765.38;1082528;54;20038;-75
2022/08/20 04:55:21;;;;;;;;;;;;;;;20.83;67.18;99769.13;1082699;54;19947;-75
2022/08/20 04:56:24;;;;;;;;;;;;;;;20.79;67.25;99767.88;1082354;54;19971;-75
2022/08/20 04:57:28;;;;;;;;;;;;;;;20.88;66.70;99767.41;1082332;39;20686;-75
2022/08/20 04:58:32;;;;;;;;;;;;;;;20.96;66.60;99760.91;1082118;54;20484;-77
2022/08/20 04:59:36;;;;;;;;;;;;;;;20.84;66.96;99763.47;1082189;54;19965;-77
2022/08/20 05:00:38;;;;;;;;;;;;;;;20.91;66.85;99768.84;1082619;54;19946;-75
2022/08/20 05:01:42;;;;;;;;;;;;;;;20.84;67.06;99763.47;1082442;54;19958;-75
2022/08/20 05:02:43;;;;;;;;;;;;;;;20.86;67.15;99765.97;1082361;54;19989;-75
2022/08/20 05:03:48;;;;;;;;;;;;;;;20.95;66.92;99764.66;1082647;54;20049;-75
2022/08/20 05:04:49;;;;;;;;;;;;;;;21.01;66.65;99771.94;1082907;46;19951;-74
2022/08/20 05:05:55;;;;;;;;;;;;;;;21.01;66.78;99765.66;1082538;54;19946;-75
2022/08/20 05:06:56;;;;;;;;;;;;;;;20.99;66.38;99771.31;1082703;54;19947;-75
2022/08/20 05:08:04;;;;;;;;;;;;;;;21.08;66.31;99771.88;1082597;54;19946;-75
2022/08/20 05:09:05;;;;;;;;;;;;;;;21.14;66.39;99781.03;1082257;54;20029;-75
2022/08/20 05:10:12;;;;;;;;;;;;;;;21.19;66.00;99781.19;1080745;54;19984;-76
2022/08/20 05:11:20;;;;;;;;;;;;;;;21.22;65.67;99778.03;1082398;39;20498;-77
2022/08/20 05:12:21;;;;;;;;;;;;;;;21.27;65.44;99777.38;1082367;54;19950;-74
2022/08/20 05:13:25;;;;;;;;;;;;;;;21.24;65.67;99775.94;1082607;54;19974;-75
2022/08/20 05:14:28;;;;;;;;;;;;;;;21.26;65.56;99789.31;1082024;54;19959;-77
2022/08/20 05:15:33;;;;;;;;;;;;;;;21.27;65.45;99785.53;1082217;54;19953;-78
2022/08/20 05:16:38;;;;;;;;;;;;;;;21.20;65.73;99780.16;1082384;54;19950;-75
2022/08/20 05:17:43;;;;;;;;;;;;;;;21.04;66.70;99784.22;1082633;54;19982;-75
2022/08/20 05:18:45;;;;;;;;;;;;;;;21.13;66.33;99785.63;1083005;39;20779;-74
2022/08/20 05:19:50;;;;;;;;;;;;;;;21.18;66.12;99783.09;1082073;54;19947;-75
2022/08/20 05:20:52;;;;;;;;;;;;;;;21.19;66.16;99789.34;1082643;54;19951;-74
2022/08/20 05:21:56;;;;;;;;;;;;;;;21.16;66.13;99784.38;1082335;54;19974;-74
2022/08/20 05:23:01;;;;;;;;;;;;;;;21.19;66.07;99792.91;1082476;54;20532;-75
2022/08/20 05:24:06;;;;;;;;;;;;;;;21.18;66.10;99783.09;1083368;31;20420;-75
2022/08/20 05:25:09;;;;;;;;;;;;;;;21.15;66.39;99788.97;1082338;54;19947;-75
2022/08/20 05:26:14;;;;;;;;;;;;;;;21.16;66.15;99795.25;1082845;54;19951;-74
2022/08/20 05:27:18;;;;;;;;;;;;;;;21.17;66.35;99792.28;1082326;54;19946;-74
2022/08/20 05:28:24;;;;;;;;;;;;;;;21.18;66.31;99791.25;1081868;54;19954;-75
2022/08/20 05:29:26;;;;;;;;;;;;;;;21.21;66.05;99800.84;1081860;54;19951;-75
2022/08/20 05:30:32;;;;;;;;;;;;;;;21.29;66.11;99795.13;1082555;54;19958;-77
2022/08/20 05:31:34;;;;;;;;;;;;;;;21.34;65.60;99795.31;1082228;54;20045;-75
2022/08/20 05:32:38;;;;;;;;;;;;;;;21.30;65.92;99804.94;1082655;54;19950;-74